createdAt,value
2019-05-19T00:00:23.172Z,15.58
2019-05-19T00:02:51.780Z,15.59
2019-05-19T00:05:20.267Z,15.58
2019-05-19T00:07:48.770Z,15.59
2019-05-19T00:10:17.268Z,15.59
2019-05-19T00:12:45.812Z,15.50
2019-05-19T00:15:14.293Z,15.52
2019-05-19T00:17:42.794Z,15.53
2019-05-19T00:20:11.364Z,15.52
2019-05-19T00:22:39.883Z,15.50
2019-05-19T00:25:08.876Z,15.46
2019-05-19T00:27:37.636Z,15.45
2019-05-19T00:30:06.269Z,15.47
2019-05-19T00:32:34.775Z,15.47
2019-05-19T00:35:03.665Z,15.55
2019-05-19T00:37:32.277Z,15.59
2019-05-19T00:40:00.805Z,15.58
2019-05-19T00:42:29.327Z,15.56
2019-05-19T00:44:57.830Z,15.55
2019-05-19T00:47:26.330Z,15.56
2019-05-19T00:49:54.780Z,15.56
2019-05-19T00:52:23.318Z,15.56
2019-05-19T00:54:52.115Z,15.58
2019-05-19T00:57:20.603Z,15.57
2019-05-19T00:59:49.103Z,15.60
2019-05-19T01:02:17.600Z,15.58
2019-05-19T01:04:46.078Z,15.56
2019-05-19T01:07:14.607Z,15.58
2019-05-19T01:09:43.127Z,15.56
2019-05-19T01:12:11.612Z,15.51
2019-05-19T01:14:40.133Z,15.51
2019-05-19T01:17:08.632Z,15.51
2019-05-19T01:19:37.121Z,15.53
2019-05-19T01:22:05.623Z,15.51
2019-05-19T01:24:34.113Z,15.48
2019-05-19T01:27:02.633Z,15.46
2019-05-19T01:29:31.163Z,15.43
2019-05-19T01:31:59.683Z,15.42
2019-05-19T01:34:28.194Z,15.47
2019-05-19T01:36:56.721Z,15.48
2019-05-19T01:39:25.248Z,15.43
2019-05-19T01:41:54.005Z,15.40
2019-05-19T01:44:22.589Z,15.40
2019-05-19T01:46:51.128Z,15.40
2019-05-19T01:49:19.624Z,15.39
2019-05-19T01:51:48.118Z,15.32
2019-05-19T01:54:16.892Z,15.30
2019-05-19T01:56:45.425Z,15.35
2019-05-19T01:59:13.943Z,15.27
2019-05-19T02:01:42.679Z,15.25
2019-05-19T02:04:11.171Z,15.30
2019-05-19T02:06:39.732Z,15.38
2019-05-19T02:09:08.463Z,15.40
2019-05-19T02:11:36.976Z,15.38
2019-05-19T02:14:05.472Z,15.30
2019-05-19T02:16:33.968Z,15.27
2019-05-19T02:19:02.662Z,15.24
2019-05-19T02:21:31.082Z,15.21
2019-05-19T02:23:59.598Z,15.22
2019-05-19T02:26:28.109Z,15.31
2019-05-19T02:28:56.624Z,15.36
2019-05-19T02:31:25.144Z,15.38
2019-05-19T02:33:53.652Z,15.34
2019-05-19T02:36:22.174Z,15.27
2019-05-19T02:38:50.944Z,15.21
2019-05-19T02:41:19.456Z,15.21
2019-05-19T02:43:48.494Z,15.12
2019-05-19T02:46:17.032Z,15.03
2019-05-19T02:48:45.538Z,14.98
2019-05-19T02:51:14.065Z,15.03
2019-05-19T02:53:42.662Z,15.10
2019-05-19T02:56:11.185Z,15.10
2019-05-19T02:58:39.685Z,15.09
2019-05-19T03:01:08.292Z,15.07
2019-05-19T03:03:36.799Z,15.07
2019-05-19T03:06:05.311Z,15.06
2019-05-19T03:08:33.827Z,15.03
2019-05-19T03:11:02.354Z,15.02
2019-05-19T03:13:30.847Z,14.96
2019-05-19T03:15:59.336Z,14.90
2019-05-19T03:18:27.852Z,14.88
2019-05-19T03:21:10.433Z,14.87
2019-05-19T03:23:26.607Z,14.85
2019-05-19T03:25:55.156Z,14.83
2019-05-19T03:28:23.727Z,14.82
2019-05-19T03:31:11.748Z,14.87
2019-05-19T03:33:42.320Z,14.84
2019-05-19T03:36:10.810Z,14.81
2019-05-19T03:38:39.293Z,14.83
2019-05-19T03:41:07.782Z,14.79
2019-05-19T03:43:36.306Z,14.81
2019-05-19T03:46:04.805Z,14.80
2019-05-19T03:48:33.656Z,14.76
2019-05-19T03:51:02.138Z,14.69
2019-05-19T03:53:30.655Z,14.61
2019-05-19T03:55:59.170Z,14.62
2019-05-19T03:58:27.926Z,14.59
2019-05-19T04:00:56.402Z,14.60
2019-05-19T04:03:24.921Z,14.58
2019-05-19T04:05:53.760Z,14.63
2019-05-19T04:08:22.253Z,14.72
2019-05-19T04:10:50.759Z,14.71
2019-05-19T04:13:19.271Z,14.67
2019-05-19T04:15:47.792Z,14.63
2019-05-19T04:18:17.359Z,14.57
2019-05-19T04:20:45.882Z,14.58
2019-05-19T04:23:14.337Z,14.61
2019-05-19T04:25:42.848Z,14.60
2019-05-19T04:28:11.379Z,14.50
2019-05-19T04:30:39.891Z,14.79
2019-05-19T04:33:08.373Z,14.78
2019-05-19T04:35:36.868Z,14.75
2019-05-19T04:38:05.382Z,14.71
2019-05-19T04:40:33.917Z,14.70
2019-05-19T04:43:02.445Z,14.73
2019-05-19T04:45:30.927Z,14.76
2019-05-19T04:47:59.443Z,14.74
2019-05-19T04:50:27.939Z,14.70
2019-05-19T04:52:56.823Z,14.72
2019-05-19T04:55:25.317Z,14.69
2019-05-19T04:57:53.857Z,14.63
2019-05-19T05:00:22.367Z,14.62
2019-05-19T05:02:50.949Z,14.63
2019-05-19T05:05:19.445Z,14.70
2019-05-19T05:07:47.968Z,14.73
2019-05-19T05:10:16.529Z,14.71
2019-05-19T05:12:45.057Z,14.66
2019-05-19T05:15:13.533Z,14.62
2019-05-19T05:17:42.031Z,14.65
2019-05-19T05:20:10.835Z,14.69
2019-05-19T05:22:39.587Z,14.67
2019-05-19T05:25:08.325Z,14.77
2019-05-19T05:27:36.827Z,14.75
2019-05-19T05:30:05.545Z,14.74
2019-05-19T05:32:34.379Z,14.69
2019-05-19T05:35:02.868Z,14.70
2019-05-19T05:37:31.657Z,14.70
2019-05-19T05:40:00.191Z,14.73
2019-05-19T05:42:31.700Z,14.75
2019-05-19T05:44:58.914Z,14.79
2019-05-19T05:47:27.409Z,14.78
2019-05-19T05:49:56.008Z,14.77
2019-05-19T05:52:37.504Z,14.84
2019-05-19T05:54:54.698Z,14.93
2019-05-19T05:57:23.580Z,14.94
2019-05-19T05:59:52.068Z,14.93
2019-05-19T06:02:20.547Z,14.94
2019-05-19T06:04:49.056Z,14.96
2019-05-19T06:07:17.578Z,14.99
2019-05-19T06:09:46.071Z,15.05
2019-05-19T06:12:14.579Z,15.06
2019-05-19T06:14:43.447Z,15.07
2019-05-19T06:17:11.939Z,15.11
2019-05-19T06:19:40.421Z,15.12
2019-05-19T06:22:09.016Z,15.12
2019-05-19T06:24:37.540Z,15.10
2019-05-19T06:27:06.053Z,15.15
2019-05-19T06:29:34.521Z,15.17
2019-05-19T06:32:10.555Z,15.20
2019-05-19T06:34:39.405Z,15.22
2019-05-19T06:37:07.877Z,15.25
2019-05-19T06:39:36.367Z,15.32
2019-05-19T06:42:04.896Z,15.38
2019-05-19T06:44:33.409Z,15.44
2019-05-19T06:47:02.195Z,15.45
2019-05-19T06:49:30.680Z,15.44
2019-05-19T06:51:59.481Z,15.46
2019-05-19T06:54:28.095Z,15.47
2019-05-19T06:56:56.627Z,15.50
2019-05-19T06:59:25.107Z,15.50
2019-05-19T07:01:53.588Z,15.50
2019-05-19T07:04:22.067Z,15.54
2019-05-19T07:06:50.613Z,15.56
2019-05-19T07:09:19.119Z,15.52
2019-05-19T07:11:47.945Z,15.54
2019-05-19T07:14:16.420Z,15.58
2019-05-19T07:16:44.950Z,15.63
2019-05-19T07:19:13.809Z,15.64
2019-05-19T07:21:42.251Z,15.64
2019-05-19T07:24:10.760Z,15.68
2019-05-19T07:26:39.287Z,15.64
2019-05-19T07:29:07.829Z,15.64
2019-05-19T07:31:36.305Z,15.66
2019-05-19T07:34:04.789Z,15.68
2019-05-19T07:36:33.262Z,15.74
2019-05-19T07:39:01.731Z,15.84
2019-05-19T07:41:30.217Z,15.91
2019-05-19T07:43:58.697Z,15.96
2019-05-19T07:46:27.206Z,15.90
2019-05-19T07:48:55.712Z,15.89
2019-05-19T07:51:24.536Z,15.94
2019-05-19T07:53:53.153Z,15.97
2019-05-19T07:56:21.696Z,16.02
2019-05-19T07:58:50.183Z,15.96
2019-05-19T08:01:18.648Z,15.95
2019-05-19T08:03:47.152Z,16.00
2019-05-19T08:06:16.181Z,16.05
2019-05-19T08:08:44.681Z,16.09
2019-05-19T08:11:13.169Z,16.15
2019-05-19T08:13:41.896Z,16.23
2019-05-19T08:16:10.682Z,16.29
2019-05-19T08:18:39.166Z,16.32
2019-05-19T08:21:08.252Z,16.46
2019-05-19T08:23:36.731Z,16.60
2019-05-19T08:26:05.492Z,16.60
2019-05-19T08:28:34.019Z,16.59
2019-05-19T08:31:02.569Z,16.59
2019-05-19T08:33:31.084Z,16.63
2019-05-19T08:35:59.597Z,16.63
2019-05-19T08:38:28.111Z,16.68
2019-05-19T08:40:56.711Z,16.65
2019-05-19T08:43:25.178Z,16.65
2019-05-19T08:45:53.660Z,16.67
2019-05-19T08:48:22.492Z,16.73
2019-05-19T08:50:51.030Z,16.83
2019-05-19T08:53:19.492Z,16.89
2019-05-19T08:55:47.988Z,16.92
2019-05-19T08:58:16.485Z,16.97
2019-05-19T09:00:44.995Z,17.00
2019-05-19T09:03:13.491Z,17.06
2019-05-19T09:05:42.214Z,17.07
2019-05-19T09:08:10.701Z,17.03
2019-05-19T09:10:39.171Z,17.04
2019-05-19T09:13:07.681Z,17.06
2019-05-19T09:15:36.185Z,17.08
2019-05-19T09:18:05.283Z,17.11
2019-05-19T09:20:33.818Z,17.15
2019-05-19T09:23:02.541Z,17.20
2019-05-19T09:25:31.361Z,17.29
2019-05-19T09:27:59.884Z,17.40
2019-05-19T09:30:28.719Z,17.49
2019-05-19T09:32:57.200Z,17.50
2019-05-19T09:35:25.985Z,17.51
2019-05-19T09:37:54.500Z,17.56
2019-05-19T09:40:26.381Z,17.63
2019-05-19T09:42:53.568Z,17.68
2019-05-19T09:45:22.441Z,17.72
2019-05-19T09:47:50.980Z,17.72
2019-05-19T09:50:19.413Z,17.74
2019-05-19T09:52:47.946Z,17.80
2019-05-19T09:55:16.432Z,17.84
2019-05-19T09:57:44.927Z,17.87
2019-05-19T10:00:15.078Z,17.91
2019-05-19T10:02:43.603Z,17.93
2019-05-19T10:05:12.130Z,17.93
2019-05-19T10:07:40.891Z,17.95
2019-05-19T10:10:12.520Z,17.97
2019-05-19T10:12:41.293Z,18.04
2019-05-19T10:15:09.794Z,18.09
2019-05-19T10:17:38.279Z,18.18
2019-05-19T10:20:07.338Z,18.28
2019-05-19T10:22:35.846Z,18.32
2019-05-19T10:25:21.022Z,18.34
2019-05-19T10:27:35.515Z,18.44
2019-05-19T10:30:04.405Z,18.47
2019-05-19T10:32:32.917Z,18.47
2019-05-19T10:35:01.401Z,18.48
2019-05-19T10:37:29.893Z,18.48
2019-05-19T10:39:58.386Z,18.53
2019-05-19T10:42:26.903Z,18.60
2019-05-19T10:44:55.872Z,18.63
2019-05-19T10:47:24.352Z,18.67
2019-05-19T10:49:52.893Z,18.76
2019-05-19T10:52:21.363Z,18.83
2019-05-19T10:54:49.841Z,18.90
2019-05-19T10:57:18.351Z,18.95
2019-05-19T10:59:46.864Z,19.00
2019-05-19T11:02:15.386Z,19.02
2019-05-19T11:04:43.858Z,19.17
2019-05-19T11:07:12.349Z,19.26
2019-05-19T11:09:40.841Z,19.31
2019-05-19T11:12:09.681Z,19.37
2019-05-19T11:14:38.126Z,19.43
2019-05-19T11:17:06.892Z,19.47
2019-05-19T11:19:35.362Z,19.57
2019-05-19T11:22:03.871Z,19.69
2019-05-19T11:24:32.375Z,19.72
2019-05-19T11:27:00.872Z,19.73
2019-05-19T11:29:29.311Z,19.84
2019-05-19T11:31:57.832Z,19.89
2019-05-19T11:34:26.322Z,19.95
2019-05-19T11:36:54.807Z,20.03
2019-05-19T11:39:23.302Z,20.08
2019-05-19T11:41:51.815Z,20.16
2019-05-19T11:44:20.298Z,20.27
2019-05-19T11:46:48.813Z,20.48
2019-05-19T11:49:17.335Z,20.57
2019-05-19T11:51:45.838Z,20.69
2019-05-19T11:54:14.316Z,20.68
2019-05-19T11:56:42.819Z,20.73
2019-05-19T11:59:11.589Z,20.77
2019-05-19T12:01:40.299Z,20.92
2019-05-19T12:04:08.815Z,21.02
2019-05-19T12:06:39.775Z,21.11
2019-05-19T12:09:07.815Z,21.13
2019-05-19T12:11:36.654Z,21.15
2019-05-19T12:14:05.147Z,21.19
2019-05-19T12:16:33.658Z,21.23
2019-05-19T12:19:02.160Z,21.30
2019-05-19T12:21:30.676Z,21.41
2019-05-19T12:23:59.151Z,21.53
2019-05-19T12:26:27.634Z,21.64
2019-05-19T12:28:56.128Z,21.81
2019-05-19T12:31:24.591Z,21.95
2019-05-19T12:33:53.380Z,22.19
2019-05-19T12:36:21.868Z,22.23
2019-05-19T12:38:50.355Z,22.30
2019-05-19T12:41:18.843Z,22.34
2019-05-19T12:43:47.323Z,22.43
2019-05-19T12:46:16.826Z,22.52
2019-05-19T12:48:45.661Z,22.65
2019-05-19T12:51:14.153Z,22.78
2019-05-19T12:53:42.647Z,22.87
2019-05-19T12:56:11.128Z,22.90
2019-05-19T12:58:39.616Z,22.85
2019-05-19T13:01:08.097Z,22.79
2019-05-19T13:03:37.027Z,22.88
2019-05-19T13:06:05.773Z,23.00
2019-05-19T13:08:34.259Z,23.14
2019-05-19T13:11:02.814Z,23.08
2019-05-19T13:13:31.294Z,22.84
2019-05-19T13:16:00.124Z,22.88
2019-05-19T13:18:28.593Z,22.99
2019-05-19T13:20:57.084Z,23.20
2019-05-19T13:23:25.560Z,23.32
2019-05-19T13:25:54.038Z,23.48
2019-05-19T13:28:22.574Z,23.64
2019-05-19T13:30:51.092Z,23.70
2019-05-19T13:33:19.661Z,23.57
2019-05-19T13:35:48.156Z,23.42
2019-05-19T13:38:16.640Z,23.45
2019-05-19T13:40:45.426Z,23.63
2019-05-19T13:43:13.956Z,23.63
2019-05-19T13:45:42.438Z,23.51
2019-05-19T13:48:10.951Z,23.28
2019-05-19T13:50:39.453Z,23.06
2019-05-19T13:53:07.930Z,22.93
2019-05-19T13:55:37.051Z,22.86
2019-05-19T13:58:05.573Z,22.90
2019-05-19T14:00:34.439Z,22.94
2019-05-19T14:03:03.222Z,23.00
2019-05-19T14:05:31.750Z,22.93
2019-05-19T14:08:00.248Z,22.87
2019-05-19T14:10:28.778Z,22.77
2019-05-19T14:12:57.280Z,22.70
2019-05-19T14:15:26.107Z,22.66
2019-05-19T14:17:54.580Z,22.68
2019-05-19T14:20:23.165Z,22.78
2019-05-19T14:22:51.617Z,22.84
2019-05-19T14:25:20.155Z,22.93
2019-05-19T14:27:48.682Z,23.08
2019-05-19T14:30:17.185Z,23.15
2019-05-19T14:32:46.018Z,23.07
2019-05-19T14:35:14.503Z,22.94
2019-05-19T14:37:42.998Z,22.92
2019-05-19T14:40:11.529Z,22.93
2019-05-19T14:42:53.416Z,22.85
2019-05-19T14:45:21.961Z,22.76
2019-05-19T14:47:50.457Z,22.66
2019-05-19T14:50:20.629Z,22.57
2019-05-19T14:52:49.118Z,22.49
2019-05-19T14:55:17.934Z,22.35
2019-05-19T14:57:46.398Z,22.24
2019-05-19T15:00:14.931Z,22.15
2019-05-19T15:02:43.418Z,22.05
2019-05-19T15:05:11.902Z,21.97
2019-05-19T15:07:40.430Z,21.94
2019-05-19T15:10:09.687Z,21.95
2019-05-19T15:12:38.167Z,21.95
2019-05-19T15:15:06.701Z,22.16
2019-05-19T15:17:35.216Z,22.38
2019-05-19T15:20:03.862Z,22.69
2019-05-19T15:22:32.364Z,23.01
2019-05-19T15:25:00.875Z,23.23
2019-05-19T15:27:29.360Z,23.13
2019-05-19T15:30:11.780Z,23.22
2019-05-19T15:32:28.398Z,23.46
2019-05-19T15:34:57.165Z,23.48
2019-05-19T15:37:25.690Z,23.33
2019-05-19T15:39:54.442Z,23.08
2019-05-19T15:42:23.276Z,22.85
2019-05-19T15:44:51.962Z,22.63
2019-05-19T15:47:20.563Z,22.45
2019-05-19T15:49:49.039Z,22.25
2019-05-19T15:52:17.505Z,22.12
2019-05-19T15:54:46.243Z,21.98
2019-05-19T15:57:14.773Z,21.82
2019-05-19T15:59:43.358Z,21.70
2019-05-19T16:02:11.897Z,21.60
2019-05-19T16:04:40.675Z,21.54
2019-05-19T16:07:09.212Z,21.48
2019-05-19T16:09:38.497Z,21.46
2019-05-19T16:12:06.991Z,21.52
2019-05-19T16:14:35.500Z,21.63
2019-05-19T16:17:04.007Z,21.83
2019-05-19T16:19:32.494Z,21.89
2019-05-19T16:22:00.974Z,21.92
2019-05-19T16:24:29.443Z,22.09
2019-05-19T16:26:57.949Z,22.44
2019-05-19T16:29:26.474Z,22.70
2019-05-19T16:31:54.952Z,22.90
2019-05-19T16:34:23.430Z,22.98
2019-05-19T16:36:52.424Z,23.02
2019-05-19T16:39:20.922Z,23.04
2019-05-19T16:41:49.472Z,23.08
2019-05-19T16:44:18.071Z,23.11
2019-05-19T16:46:46.923Z,22.87
2019-05-19T16:49:15.445Z,22.64
2019-05-19T16:51:43.975Z,22.63
2019-05-19T16:54:17.426Z,22.75
2019-05-19T16:56:46.006Z,22.90
2019-05-19T16:59:14.489Z,23.05
2019-05-19T17:01:43.004Z,23.19
2019-05-19T17:04:11.474Z,23.31
2019-05-19T17:06:39.978Z,23.35
2019-05-19T17:09:08.458Z,23.32
2019-05-19T17:11:36.937Z,23.30
2019-05-19T17:14:05.718Z,23.31
2019-05-19T17:16:34.242Z,23.10
2019-05-19T17:19:02.741Z,22.88
2019-05-19T17:21:31.282Z,22.64
2019-05-19T17:23:59.772Z,22.34
2019-05-19T17:26:28.371Z,22.15
2019-05-19T17:29:00.674Z,21.98
2019-05-19T17:31:27.159Z,21.82
2019-05-19T17:33:55.921Z,21.65
2019-05-19T17:36:27.315Z,21.56
2019-05-19T17:38:54.667Z,21.49
2019-05-19T17:41:23.187Z,21.50
2019-05-19T17:43:51.697Z,21.45
2019-05-19T17:46:20.218Z,21.40
2019-05-19T17:48:48.958Z,21.35
2019-05-19T17:51:18.075Z,21.37
2019-05-19T17:53:46.832Z,21.36
2019-05-19T17:56:15.594Z,21.33
2019-05-19T17:58:44.419Z,21.28
2019-05-19T18:01:13.208Z,21.25
2019-05-19T18:03:41.728Z,21.16
2019-05-19T18:06:10.237Z,21.06
2019-05-19T18:08:38.727Z,20.94
2019-05-19T18:11:07.192Z,20.83
2019-05-19T18:13:35.702Z,20.65
2019-05-19T18:16:04.196Z,20.56
2019-05-19T18:18:32.683Z,20.51
2019-05-19T18:21:01.244Z,20.38
2019-05-19T18:23:29.823Z,20.25
2019-05-19T18:25:58.387Z,20.17
2019-05-19T18:28:27.007Z,20.13
2019-05-19T18:30:55.475Z,20.10
2019-05-19T18:33:23.973Z,20.04
2019-05-19T18:35:52.439Z,19.98
2019-05-19T18:38:21.249Z,19.90
2019-05-19T18:40:49.727Z,19.80
2019-05-19T18:43:18.209Z,19.68
2019-05-19T18:45:46.711Z,19.56
2019-05-19T18:48:15.179Z,19.50
2019-05-19T18:50:43.820Z,19.36
2019-05-19T18:53:12.573Z,19.28
2019-05-19T18:55:41.136Z,19.17
2019-05-19T18:58:09.614Z,19.04
2019-05-19T19:00:38.472Z,18.93
2019-05-19T19:03:07.030Z,18.66
2019-05-19T19:05:35.579Z,18.82
2019-05-19T19:08:04.123Z,18.81
2019-05-19T19:10:32.616Z,18.76
2019-05-19T19:13:01.121Z,18.64
2019-05-19T19:15:29.899Z,18.53
2019-05-19T19:17:58.822Z,18.55
2019-05-19T19:20:27.405Z,18.30
2019-05-19T19:22:55.947Z,18.42
2019-05-19T19:25:24.421Z,18.39
2019-05-19T19:27:53.035Z,18.40
2019-05-19T19:30:21.541Z,18.38
2019-05-19T19:32:50.402Z,18.38
2019-05-19T19:35:18.894Z,18.29
2019-05-19T19:37:47.780Z,18.24
2019-05-19T19:40:22.046Z,18.20
2019-05-19T19:42:50.586Z,18.17
2019-05-19T19:45:19.161Z,18.14
2019-05-19T19:47:47.780Z,18.09
2019-05-19T19:50:16.627Z,18.06
2019-05-19T19:52:45.132Z,18.01
2019-05-19T19:55:13.785Z,18.01
2019-05-19T19:57:42.269Z,18.00
2019-05-19T20:00:18.335Z,17.92
2019-05-19T20:02:41.014Z,17.91
2019-05-19T20:05:09.513Z,17.86
2019-05-19T20:07:38.017Z,17.82
2019-05-19T20:10:06.578Z,17.81
2019-05-19T20:12:35.035Z,17.82
2019-05-19T20:15:03.546Z,17.79
2019-05-19T20:17:32.030Z,17.70
2019-05-19T20:20:00.525Z,17.67
2019-05-19T20:22:29.008Z,17.67
2019-05-19T20:24:57.531Z,17.67
2019-05-19T20:27:26.033Z,17.70
2019-05-19T20:29:54.570Z,17.67
2019-05-19T20:32:23.252Z,17.63
2019-05-19T20:34:51.881Z,17.59
2019-05-19T20:37:20.623Z,17.56
2019-05-19T20:39:49.138Z,17.56
2019-05-19T20:42:17.721Z,17.55
2019-05-19T20:44:46.233Z,17.53
2019-05-19T20:47:14.719Z,17.51
2019-05-19T20:49:43.539Z,17.47
2019-05-19T20:52:12.331Z,17.48
2019-05-19T20:54:40.841Z,17.47
2019-05-19T20:57:09.360Z,17.48
2019-05-19T20:59:37.861Z,17.43
2019-05-19T21:02:06.350Z,17.40
2019-05-19T21:04:35.170Z,17.36
2019-05-19T21:07:03.675Z,17.32
2019-05-19T21:09:32.534Z,17.31
2019-05-19T21:12:01.330Z,17.35
2019-05-19T21:14:29.828Z,17.33
2019-05-19T21:16:58.342Z,17.29
2019-05-19T21:19:26.823Z,17.24
2019-05-19T21:21:55.289Z,17.22
2019-05-19T21:24:23.781Z,17.21
2019-05-19T21:26:52.268Z,17.19
2019-05-19T21:29:20.756Z,17.15
2019-05-19T21:31:49.237Z,17.12
2019-05-19T21:34:17.962Z,17.09
2019-05-19T21:36:46.473Z,17.06
2019-05-19T21:39:14.983Z,17.04
2019-05-19T21:41:43.482Z,17.04
2019-05-19T21:44:11.965Z,17.06
2019-05-19T21:46:40.487Z,17.09
2019-05-19T21:49:08.950Z,17.06
2019-05-19T21:51:37.443Z,17.06
2019-05-19T21:54:05.981Z,17.03
2019-05-19T21:56:34.688Z,16.98
2019-05-19T21:59:03.145Z,16.97
2019-05-19T22:01:31.645Z,16.94
2019-05-19T22:04:00.158Z,16.92
2019-05-19T22:06:30.295Z,16.87
2019-05-19T22:08:58.768Z,16.85
2019-05-19T22:11:27.278Z,16.86
2019-05-19T22:13:55.765Z,16.80
2019-05-19T22:16:24.748Z,16.79
2019-05-19T22:18:53.275Z,16.77
2019-05-19T22:21:21.780Z,16.50
2019-05-19T22:23:50.261Z,16.66
2019-05-19T22:26:18.793Z,16.65
2019-05-19T22:28:47.338Z,16.63
2019-05-19T22:31:15.817Z,16.59
2019-05-19T22:33:44.304Z,16.56
2019-05-19T22:36:12.782Z,16.57
2019-05-19T22:38:41.550Z,16.51
2019-05-19T22:41:10.015Z,16.50
2019-05-19T22:43:38.806Z,16.48
2019-05-19T22:46:07.306Z,16.48
2019-05-19T22:48:35.786Z,16.45
2019-05-19T22:51:04.282Z,16.45
2019-05-19T22:53:32.943Z,16.46
2019-05-19T22:56:01.447Z,16.42
2019-05-19T22:58:29.908Z,16.38
2019-05-19T23:00:58.374Z,16.34
2019-05-19T23:03:26.891Z,16.32
2019-05-19T23:05:55.384Z,16.28
2019-05-19T23:08:23.933Z,16.29
2019-05-19T23:10:52.437Z,16.31
2019-05-19T23:13:21.013Z,16.32
2019-05-19T23:15:49.538Z,16.31
2019-05-19T23:18:19.307Z,16.31
2019-05-19T23:20:47.774Z,16.29
2019-05-19T23:23:16.271Z,16.27
2019-05-19T23:25:44.801Z,16.25
2019-05-19T23:28:13.317Z,16.27
2019-05-19T23:30:41.822Z,16.31
2019-05-19T23:33:10.331Z,16.30
2019-05-19T23:35:38.818Z,16.28
2019-05-19T23:38:07.297Z,16.24
2019-05-19T23:40:35.796Z,16.21
2019-05-19T23:43:04.289Z,16.20
2019-05-19T23:45:32.773Z,16.20
2019-05-19T23:48:01.242Z,16.16
2019-05-19T23:50:29.753Z,16.12
2019-05-19T23:52:58.265Z,16.14
2019-05-19T23:55:26.761Z,16.12
2019-05-19T23:57:55.557Z,16.07
